Dendermonde, Belgium
Current Conditions -  °F | °C
As of 5:20 PM on Monday 22 Dec 2014 (Local Time) from EBAW Reporting Station
Broken Clouds Broken Clouds  
Wind Chill: 55°   Ceiling: 2200
Heat Index: 55°   Visibility: 6mi
Dew Point: 46°   Wind: 22mph
Humidity: 72%   Direction: 250°WSW
Pressure: 30.09"   Gusts: 36mph
Location:  51.03°N, 4.1°E
Report Text: EBAW 221620Z 25019G31KT 220V280 9999 BKN022 13/08 Q1019 TEMPO 25022G35KT
Loading
Personal Weather Stations






























Interactive Weather Map New forecast layout! Learn more

10-Day Weather Forecast

Advertisements
Track Severe Weather on mobile